sensor_id;sensor_type;location;lat;lon;timestamp;temperature;humidity
65876;HTU21D;52657;51.128;5.938;2023-02-11T00:00:33;9.63;67.17
65876;HTU21D;52657;51.128;5.938;2023-02-11T00:02:59;9.61;67.16
65876;HTU21D;52657;51.128;5.938;2023-02-11T00:05:25;9.59;67.18
65876;HTU21D;52657;51.128;5.938;2023-02-11T00:07:51;9.57;67.19
65876;HTU21D;52657;51.128;5.938;2023-02-11T00:10:17;9.52;67.26
65876;HTU21D;52657;51.128;5.938;2023-02-11T00:12:43;9.48;67.33
65876;HTU21D;52657;51.128;5.938;2023-02-11T00:15:10;9.47;67.34
65876;HTU21D;52657;51.128;5.938;2023-02-11T00:17:36;9.47;67.36
65876;HTU21D;52657;51.128;5.938;2023-02-11T00:20:01;9.45;67.39
65876;HTU21D;52657;51.128;5.938;2023-02-11T00:22:27;9.44;67.41
65876;HTU21D;52657;51.128;5.938;2023-02-11T00:24:53;9.44;67.34
65876;HTU21D;52657;51.128;5.938;2023-02-11T00:27:19;9.39;67.43
65876;HTU21D;52657;51.128;5.938;2023-02-11T00:29:45;9.31;67.70
65876;HTU21D;52657;51.128;5.938;2023-02-11T00:32:10;9.24;67.87
65876;HTU21D;52657;51.128;5.938;2023-02-11T00:34:36;9.22;68.10
65876;HTU21D;52657;51.128;5.938;2023-02-11T00:37:03;9.23;68.08
65876;HTU21D;52657;51.128;5.938;2023-02-11T00:39:29;9.22;68.16
65876;HTU21D;52657;51.128;5.938;2023-02-11T00:41:56;9.19;68.23
65876;HTU21D;52657;51.128;5.938;2023-02-11T00:44:22;9.16;68.46
65876;HTU21D;52657;51.128;5.938;2023-02-11T00:46:47;9.16;68.40
65876;HTU21D;52657;51.128;5.938;2023-02-11T00:49:13;9.10;68.55
65876;HTU21D;52657;51.128;5.938;2023-02-11T00:51:40;9.09;68.70
65876;HTU21D;52657;51.128;5.938;2023-02-11T00:54:06;9.07;68.82
65876;HTU21D;52657;51.128;5.938;2023-02-11T00:56:33;9.07;68.86
65876;HTU21D;52657;51.128;5.938;2023-02-11T00:58:59;9.09;68.85
65876;HTU21D;52657;51.128;5.938;2023-02-11T01:01:25;9.09;68.82
65876;HTU21D;52657;51.128;5.938;2023-02-11T01:03:51;9.05;68.99
65876;HTU21D;52657;51.128;5.938;2023-02-11T01:06:17;9.03;69.02
65876;HTU21D;52657;51.128;5.938;2023-02-11T01:08:43;9.00;69.23
65876;HTU21D;52657;51.128;5.938;2023-02-11T01:11:16;8.98;69.29
65876;HTU21D;52657;51.128;5.938;2023-02-11T01:13:44;9.00;69.23
65876;HTU21D;52657;51.128;5.938;2023-02-11T01:16:10;9.02;69.22
65876;HTU21D;52657;51.128;5.938;2023-02-11T01:18:37;9.02;69.24
65876;HTU21D;52657;51.128;5.938;2023-02-11T01:21:03;9.07;69.10
65876;HTU21D;52657;51.128;5.938;2023-02-11T01:23:29;9.05;69.11
65876;HTU21D;52657;51.128;5.938;2023-02-11T01:25:56;9.01;69.28
65876;HTU21D;52657;51.128;5.938;2023-02-11T01:28:24;8.97;69.47
65876;HTU21D;52657;51.128;5.938;2023-02-11T01:30:52;9.00;69.43
65876;HTU21D;52657;51.128;5.938;2023-02-11T01:33:18;8.98;69.52
65876;HTU21D;52657;51.128;5.938;2023-02-11T01:35:44;8.94;69.62
65876;HTU21D;52657;51.128;5.938;2023-02-11T01:38:20;8.92;69.71
65876;HTU21D;52657;51.128;5.938;2023-02-11T01:41:01;8.87;69.78
65876;HTU21D;52657;51.128;5.938;2023-02-11T01:43:35;8.83;69.98
65876;HTU21D;52657;51.128;5.938;2023-02-11T01:46:03;8.82;70.02
65876;HTU21D;52657;51.128;5.938;2023-02-11T01:48:37;8.83;69.95
65876;HTU21D;52657;51.128;5.938;2023-02-11T01:51:20;8.83;70.03
65876;HTU21D;52657;51.128;5.938;2023-02-11T01:53:49;8.79;70.04
65876;HTU21D;52657;51.128;5.938;2023-02-11T01:56:40;8.78;70.10
65876;HTU21D;52657;51.128;5.938;2023-02-11T01:59:33;8.76;70.03
65876;HTU21D;52657;51.128;5.938;2023-02-11T02:02:08;8.76;70.19
65876;HTU21D;52657;51.128;5.938;2023-02-11T02:04:43;8.77;70.19
65876;HTU21D;52657;51.128;5.938;2023-02-11T02:07:20;8.79;70.22
65876;HTU21D;52657;51.128;5.938;2023-02-11T02:09:56;8.80;70.16
65876;HTU21D;52657;51.128;5.938;2023-02-11T02:12:23;8.81;70.25
65876;HTU21D;52657;51.128;5.938;2023-02-11T02:14:48;8.85;70.22
65876;HTU21D;52657;51.128;5.938;2023-02-11T02:17:34;8.85;70.35
65876;HTU21D;52657;51.128;5.938;2023-02-11T02:22:57;8.85;70.42
65876;HTU21D;52657;51.128;5.938;2023-02-11T02:37:30;8.92;70.45
65876;HTU21D;52657;51.128;5.938;2023-02-11T02:40:05;8.96;70.45
65876;HTU21D;52657;51.128;5.938;2023-02-11T02:42:34;9.00;70.34
65876;HTU21D;52657;51.128;5.938;2023-02-11T02:45:00;9.00;70.32
65876;HTU21D;52657;51.128;5.938;2023-02-11T02:47:26;8.97;70.43
65876;HTU21D;52657;51.128;5.938;2023-02-11T02:49:52;8.95;70.46
65876;HTU21D;52657;51.128;5.938;2023-02-11T02:52:34;8.90;70.81
65876;HTU21D;52657;51.128;5.938;2023-02-11T03:06:39;8.98;70.80
65876;HTU21D;52657;51.128;5.938;2023-02-11T03:09:20;9.00;70.79
65876;HTU21D;52657;51.128;5.938;2023-02-11T03:11:48;8.95;70.87
65876;HTU21D;52657;51.128;5.938;2023-02-11T03:14:20;8.96;70.94
65876;HTU21D;52657;51.128;5.938;2023-02-11T03:16:48;9.03;70.83
65876;HTU21D;52657;51.128;5.938;2023-02-11T03:19:20;9.06;70.75
65876;HTU21D;52657;51.128;5.938;2023-02-11T03:21:51;9.06;70.69
65876;HTU21D;52657;51.128;5.938;2023-02-11T03:24:44;9.06;70.73
65876;HTU21D;52657;51.128;5.938;2023-02-11T03:27:37;9.05;70.73
65876;HTU21D;52657;51.128;5.938;2023-02-11T03:30:17;9.06;70.85
65876;HTU21D;52657;51.128;5.938;2023-02-11T03:33:06;9.08;70.77
65876;HTU21D;52657;51.128;5.938;2023-02-11T03:35:54;9.12;70.67
65876;HTU21D;52657;51.128;5.938;2023-02-11T03:38:33;9.11;70.66
65876;HTU21D;52657;51.128;5.938;2023-02-11T03:41:04;9.09;70.80
65876;HTU21D;52657;51.128;5.938;2023-02-11T03:43:43;9.14;70.72
65876;HTU21D;52657;51.128;5.938;2023-02-11T03:46:13;9.18;70.56
65876;HTU21D;52657;51.128;5.938;2023-02-11T03:48:45;9.19;70.59
65876;HTU21D;52657;51.128;5.938;2023-02-11T03:51:15;9.19;70.54
65876;HTU21D;52657;51.128;5.938;2023-02-11T03:53:44;9.20;70.42
65876;HTU21D;52657;51.128;5.938;2023-02-11T03:56:17;9.19;70.58
65876;HTU21D;52657;51.128;5.938;2023-02-11T03:58:44;9.22;70.48
65876;HTU21D;52657;51.128;5.938;2023-02-11T04:01:11;9.19;70.48
65876;HTU21D;52657;51.128;5.938;2023-02-11T04:03:36;9.16;70.65
65876;HTU21D;52657;51.128;5.938;2023-02-11T04:06:02;9.15;70.67
65876;HTU21D;52657;51.128;5.938;2023-02-11T04:08:28;9.14;70.69
65876;HTU21D;52657;51.128;5.938;2023-02-11T04:10:54;9.16;70.65
65876;HTU21D;52657;51.128;5.938;2023-02-11T04:13:21;9.18;70.65
65876;HTU21D;52657;51.128;5.938;2023-02-11T04:15:47;9.20;70.69
65876;HTU21D;52657;51.128;5.938;2023-02-11T04:18:13;9.23;70.56
65876;HTU21D;52657;51.128;5.938;2023-02-11T04:20:39;9.20;70.61
65876;HTU21D;52657;51.128;5.938;2023-02-11T04:23:04;9.21;70.61
65876;HTU21D;52657;51.128;5.938;2023-02-11T04:25:30;9.21;70.61
65876;HTU21D;52657;51.128;5.938;2023-02-11T04:27:56;9.24;70.55
65876;HTU21D;52657;51.128;5.938;2023-02-11T04:30:21;9.24;70.50
65876;HTU21D;52657;51.128;5.938;2023-02-11T04:32:50;9.25;70.61
65876;HTU21D;52657;51.128;5.938;2023-02-11T04:35:16;9.26;70.56
65876;HTU21D;52657;51.128;5.938;2023-02-11T04:37:41;9.23;70.61
65876;HTU21D;52657;51.128;5.938;2023-02-11T04:40:08;9.22;70.78
65876;HTU21D;52657;51.128;5.938;2023-02-11T04:42:33;9.21;70.90
65876;HTU21D;52657;51.128;5.938;2023-02-11T04:45:00;9.23;70.91
65876;HTU21D;52657;51.128;5.938;2023-02-11T04:47:26;9.20;71.01
65876;HTU21D;52657;51.128;5.938;2023-02-11T04:49:52;9.16;71.16
65876;HTU21D;52657;51.128;5.938;2023-02-11T04:52:17;9.19;71.23
65876;HTU21D;52657;51.128;5.938;2023-02-11T04:54:43;9.18;71.25
65876;HTU21D;52657;51.128;5.938;2023-02-11T04:57:09;9.16;71.35
65876;HTU21D;52657;51.128;5.938;2023-02-11T04:59:34;9.17;71.42
65876;HTU21D;52657;51.128;5.938;2023-02-11T05:02:00;9.15;71.47
65876;HTU21D;52657;51.128;5.938;2023-02-11T05:04:26;9.18;71.55
65876;HTU21D;52657;51.128;5.938;2023-02-11T05:06:52;9.17;71.46
65876;HTU21D;52657;51.128;5.938;2023-02-11T05:09:29;9.15;71.74
65876;HTU21D;52657;51.128;5.938;2023-02-11T05:11:55;9.15;71.71
65876;HTU21D;52657;51.128;5.938;2023-02-11T05:14:21;9.15;71.77
65876;HTU21D;52657;51.128;5.938;2023-02-11T05:16:47;9.10;71.96
65876;HTU21D;52657;51.128;5.938;2023-02-11T05:19:13;9.08;72.18
65876;HTU21D;52657;51.128;5.938;2023-02-11T05:21:39;9.15;72.11
65876;HTU21D;52657;51.128;5.938;2023-02-11T05:24:06;9.16;72.03
65876;HTU21D;52657;51.128;5.938;2023-02-11T05:26:32;9.15;72.09
65876;HTU21D;52657;51.128;5.938;2023-02-11T05:28:58;9.16;72.16
65876;HTU21D;52657;51.128;5.938;2023-02-11T05:31:24;9.21;72.08
65876;HTU21D;52657;51.128;5.938;2023-02-11T05:33:49;9.18;72.17
65876;HTU21D;52657;51.128;5.938;2023-02-11T05:36:15;9.19;72.28
65876;HTU21D;52657;51.128;5.938;2023-02-11T05:38:41;9.24;72.19
65876;HTU21D;52657;51.128;5.938;2023-02-11T05:41:08;9.29;72.03
65876;HTU21D;52657;51.128;5.938;2023-02-11T05:43:34;9.30;72.01
65876;HTU21D;52657;51.128;5.938;2023-02-11T05:46:02;9.29;72.04
65876;HTU21D;52657;51.128;5.938;2023-02-11T05:48:29;9.32;72.02
65876;HTU21D;52657;51.128;5.938;2023-02-11T05:50:55;9.29;72.09
65876;HTU21D;52657;51.128;5.938;2023-02-11T05:53:20;9.26;72.26
65876;HTU21D;52657;51.128;5.938;2023-02-11T05:55:50;9.25;72.35
65876;HTU21D;52657;51.128;5.938;2023-02-11T05:58:15;9.27;72.41
65876;HTU21D;52657;51.128;5.938;2023-02-11T06:00:41;9.31;72.32
65876;HTU21D;52657;51.128;5.938;2023-02-11T06:03:07;9.35;72.18
65876;HTU21D;52657;51.128;5.938;2023-02-11T06:05:34;9.35;72.19
65876;HTU21D;52657;51.128;5.938;2023-02-11T06:08:01;9.36;72.22
65876;HTU21D;52657;51.128;5.938;2023-02-11T06:10:27;9.36;72.24
65876;HTU21D;52657;51.128;5.938;2023-02-11T06:12:53;9.35;72.32
65876;HTU21D;52657;51.128;5.938;2023-02-11T06:15:19;9.34;72.44
65876;HTU21D;52657;51.128;5.938;2023-02-11T06:17:45;9.33;72.48
65876;HTU21D;52657;51.128;5.938;2023-02-11T06:20:11;9.29;72.66
65876;HTU21D;52657;51.128;5.938;2023-02-11T06:22:37;9.29;72.70
65876;HTU21D;52657;51.128;5.938;2023-02-11T06:25:03;9.32;72.71
65876;HTU21D;52657;51.128;5.938;2023-02-11T06:27:28;9.34;72.61
65876;HTU21D;52657;51.128;5.938;2023-02-11T06:29:54;9.34;72.66
65876;HTU21D;52657;51.128;5.938;2023-02-11T06:32:20;9.33;72.67
65876;HTU21D;52657;51.128;5.938;2023-02-11T06:34:46;9.30;72.84
65876;HTU21D;52657;51.128;5.938;2023-02-11T06:37:11;9.25;73.05
65876;HTU21D;52657;51.128;5.938;2023-02-11T06:39:37;9.25;73.22
65876;HTU21D;52657;51.128;5.938;2023-02-11T06:42:03;9.26;73.21
65876;HTU21D;52657;51.128;5.938;2023-02-11T06:44:29;9.29;73.25
65876;HTU21D;52657;51.128;5.938;2023-02-11T06:46:54;9.32;73.15
65876;HTU21D;52657;51.128;5.938;2023-02-11T06:49:20;9.34;73.14
65876;HTU21D;52657;51.128;5.938;2023-02-11T06:51:46;9.35;73.22
65876;HTU21D;52657;51.128;5.938;2023-02-11T06:54:11;9.33;73.21
65876;HTU21D;52657;51.128;5.938;2023-02-11T06:56:39;9.33;73.29
65876;HTU21D;52657;51.128;5.938;2023-02-11T06:59:05;9.35;73.35
65876;HTU21D;52657;51.128;5.938;2023-02-11T07:01:31;9.38;73.37
65876;HTU21D;52657;51.128;5.938;2023-02-11T07:03:57;9.42;73.32
65876;HTU21D;52657;51.128;5.938;2023-02-11T07:06:25;9.47;73.23
65876;HTU21D;52657;51.128;5.938;2023-02-11T07:08:53;9.47;73.16
65876;HTU21D;52657;51.128;5.938;2023-02-11T07:11:25;9.44;73.30
65876;HTU21D;52657;51.128;5.938;2023-02-11T07:13:54;9.44;73.35
65876;HTU21D;52657;51.128;5.938;2023-02-11T07:16:21;9.42;73.46
65876;HTU21D;52657;51.128;5.938;2023-02-11T07:18:49;9.44;73.48
65876;HTU21D;52657;51.128;5.938;2023-02-11T07:21:18;9.44;73.54
65876;HTU21D;52657;51.128;5.938;2023-02-11T07:23:45;9.46;73.59
65876;HTU21D;52657;51.128;5.938;2023-02-11T07:26:14;9.49;73.54
65876;HTU21D;52657;51.128;5.938;2023-02-11T07:28:40;9.48;73.54
65876;HTU21D;52657;51.128;5.938;2023-02-11T07:31:13;9.49;73.59
65876;HTU21D;52657;51.128;5.938;2023-02-11T07:33:40;9.45;73.75
65876;HTU21D;52657;51.128;5.938;2023-02-11T07:36:09;9.49;73.80
65876;HTU21D;52657;51.128;5.938;2023-02-11T07:38:36;9.54;73.68
65876;HTU21D;52657;51.128;5.938;2023-02-11T07:41:04;9.61;73.50
65876;HTU21D;52657;51.128;5.938;2023-02-11T07:43:31;9.68;73.28
65876;HTU21D;52657;51.128;5.938;2023-02-11T07:45:57;9.72;73.19
65876;HTU21D;52657;51.128;5.938;2023-02-11T07:48:23;9.79;72.89
65876;HTU21D;52657;51.128;5.938;2023-02-11T07:50:48;9.82;72.70
65876;HTU21D;52657;51.128;5.938;2023-02-11T07:53:14;9.81;72.74
65876;HTU21D;52657;51.128;5.938;2023-02-11T07:55:41;9.83;72.67
65876;HTU21D;52657;51.128;5.938;2023-02-11T07:58:07;9.84;72.69
65876;HTU21D;52657;51.128;5.938;2023-02-11T08:00:33;9.81;72.80
65876;HTU21D;52657;51.128;5.938;2023-02-11T08:02:59;9.81;72.82
65876;HTU21D;52657;51.128;5.938;2023-02-11T08:05:25;9.81;72.85
65876;HTU21D;52657;51.128;5.938;2023-02-11T08:07:52;9.81;72.86
65876;HTU21D;52657;51.128;5.938;2023-02-11T08:10:18;9.79;73.03
65876;HTU21D;52657;51.128;5.938;2023-02-11T08:12:43;9.79;73.06
65876;HTU21D;52657;51.128;5.938;2023-02-11T08:15:09;9.80;73.15
65876;HTU21D;52657;51.128;5.938;2023-02-11T08:17:35;9.82;73.09
65876;HTU21D;52657;51.128;5.938;2023-02-11T08:20:02;9.86;73.11
65876;HTU21D;52657;51.128;5.938;2023-02-11T08:22:31;9.88;73.00
65876;HTU21D;52657;51.128;5.938;2023-02-11T08:24:57;9.88;73.01
65876;HTU21D;52657;51.128;5.938;2023-02-11T08:27:23;9.92;72.95
65876;HTU21D;52657;51.128;5.938;2023-02-11T08:29:51;9.89;72.99
65876;HTU21D;52657;51.128;5.938;2023-02-11T08:32:17;9.85;73.13
65876;HTU21D;52657;51.128;5.938;2023-02-11T08:34:43;9.80;73.36
65876;HTU21D;52657;51.128;5.938;2023-02-11T08:37:09;9.80;73.55
65876;HTU21D;52657;51.128;5.938;2023-02-11T08:39:34;9.84;73.46
65876;HTU21D;52657;51.128;5.938;2023-02-11T08:42:00;9.85;73.51
65876;HTU21D;52657;51.128;5.938;2023-02-11T08:44:26;9.89;73.41
65876;HTU21D;52657;51.128;5.938;2023-02-11T08:46:52;9.90;73.51
65876;HTU21D;52657;51.128;5.938;2023-02-11T08:49:18;9.96;73.40
65876;HTU21D;52657;51.128;5.938;2023-02-11T08:51:45;9.96;73.32
65876;HTU21D;52657;51.128;5.938;2023-02-11T08:54:11;9.99;73.27
65876;HTU21D;52657;51.128;5.938;2023-02-11T08:56:38;9.99;73.29
65876;HTU21D;52657;51.128;5.938;2023-02-11T08:59:05;9.96;73.38
65876;HTU21D;52657;51.128;5.938;2023-02-11T09:01:32;9.98;73.47
65876;HTU21D;52657;51.128;5.938;2023-02-11T09:03:59;10.00;73.55
65876;HTU21D;52657;51.128;5.938;2023-02-11T09:06:26;10.01;73.47
65876;HTU21D;52657;51.128;5.938;2023-02-11T09:08:55;10.03;73.47
65876;HTU21D;52657;51.128;5.938;2023-02-11T09:11:27;10.03;73.50
65876;HTU21D;52657;51.128;5.938;2023-02-11T09:13:53;10.01;73.54
65876;HTU21D;52657;51.128;5.938;2023-02-11T09:16:22;9.99;73.64
65876;HTU21D;52657;51.128;5.938;2023-02-11T09:18:50;10.00;73.77
65876;HTU21D;52657;51.128;5.938;2023-02-11T09:21:18;9.98;73.76
65876;HTU21D;52657;51.128;5.938;2023-02-11T09:23:44;9.98;73.88
65876;HTU21D;52657;51.128;5.938;2023-02-11T09:26:23;10.04;73.90
65876;HTU21D;52657;51.128;5.938;2023-02-11T09:28:50;10.08;73.86
65876;HTU21D;52657;51.128;5.938;2023-02-11T09:31:24;10.13;73.70
65876;HTU21D;52657;51.128;5.938;2023-02-11T09:33:54;10.15;73.72
65876;HTU21D;52657;51.128;5.938;2023-02-11T09:36:25;10.16;73.73
65876;HTU21D;52657;51.128;5.938;2023-02-11T09:38:52;10.20;73.66
65876;HTU21D;52657;51.128;5.938;2023-02-11T09:41:32;10.23;73.67
65876;HTU21D;52657;51.128;5.938;2023-02-11T09:44:02;10.27;73.60
65876;HTU21D;52657;51.128;5.938;2023-02-11T09:46:35;10.27;73.52
65876;HTU21D;52657;51.128;5.938;2023-02-11T09:49:04;10.30;73.51
65876;HTU21D;52657;51.128;5.938;2023-02-11T09:51:53;10.30;73.48
65876;HTU21D;52657;51.128;5.938;2023-02-11T09:54:29;10.31;73.42
65876;HTU21D;52657;51.128;5.938;2023-02-11T09:56:56;10.31;73.49
65876;HTU21D;52657;51.128;5.938;2023-02-11T09:59:22;10.30;73.54
65876;HTU21D;52657;51.128;5.938;2023-02-11T10:06:53;10.34;73.64
65876;HTU21D;52657;51.128;5.938;2023-02-11T10:09:32;10.37;73.57
65876;HTU21D;52657;51.128;5.938;2023-02-11T10:15:20;10.36;73.46
65876;HTU21D;52657;51.128;5.938;2023-02-11T10:18:12;10.36;73.60
65876;HTU21D;52657;51.128;5.938;2023-02-11T10:25:54;10.48;73.26
65876;HTU21D;52657;51.128;5.938;2023-02-11T10:28:26;10.49;73.28
65876;HTU21D;52657;51.128;5.938;2023-02-11T10:31:11;10.45;73.20
65876;HTU21D;52657;51.128;5.938;2023-02-11T10:33:53;10.44;73.31
65876;HTU21D;52657;51.128;5.938;2023-02-11T10:36:25;10.48;73.34
65876;HTU21D;52657;51.128;5.938;2023-02-11T10:38:52;10.50;73.25
65876;HTU21D;52657;51.128;5.938;2023-02-11T10:41:33;10.49;73.17
65876;HTU21D;52657;51.128;5.938;2023-02-11T10:44:01;10.49;73.30
65876;HTU21D;52657;51.128;5.938;2023-02-11T10:46:32;10.49;73.29
65876;HTU21D;52657;51.128;5.938;2023-02-11T10:49:00;10.48;73.38
65876;HTU21D;52657;51.128;5.938;2023-02-11T10:51:32;10.51;73.38
65876;HTU21D;52657;51.128;5.938;2023-02-11T10:56:43;10.54;73.32
65876;HTU21D;52657;51.128;5.938;2023-02-11T10:59:29;10.60;73.28
65876;HTU21D;52657;51.128;5.938;2023-02-11T11:01:58;10.66;73.10
65876;HTU21D;52657;51.128;5.938;2023-02-11T11:04:34;10.69;73.06
65876;HTU21D;52657;51.128;5.938;2023-02-11T11:07:21;10.70;72.83
65876;HTU21D;52657;51.128;5.938;2023-02-11T11:09:51;10.72;72.87
65876;HTU21D;52657;51.128;5.938;2023-02-11T11:15:23;10.73;72.92
65876;HTU21D;52657;51.128;5.938;2023-02-11T11:18:14;10.72;73.01
65876;HTU21D;52657;51.128;5.938;2023-02-11T11:20:57;10.81;73.06
65876;HTU21D;52657;51.128;5.938;2023-02-11T11:23:23;10.89;72.63
65876;HTU21D;52657;51.128;5.938;2023-02-11T11:31:30;11.04;72.11
65876;HTU21D;52657;51.128;5.938;2023-02-11T11:34:00;11.07;71.97
65876;HTU21D;52657;51.128;5.938;2023-02-11T11:36:45;11.09;71.80
65876;HTU21D;52657;51.128;5.938;2023-02-11T11:39:30;11.04;71.87
65876;HTU21D;52657;51.128;5.938;2023-02-11T11:42:00;10.99;72.11
65876;HTU21D;52657;51.128;5.938;2023-02-11T11:44:30;11.01;72.35
65876;HTU21D;52657;51.128;5.938;2023-02-11T11:49:44;11.14;72.03
65876;HTU21D;52657;51.128;5.938;2023-02-11T11:55:14;11.20;71.71
65876;HTU21D;52657;51.128;5.938;2023-02-11T11:57:41;11.20;71.61
65876;HTU21D;52657;51.128;5.938;2023-02-11T12:00:17;11.22;71.60
65876;HTU21D;52657;51.128;5.938;2023-02-11T12:03:00;11.22;71.51
65876;HTU21D;52657;51.128;5.938;2023-02-11T12:06:26;11.23;71.60
65876;HTU21D;52657;51.128;5.938;2023-02-11T12:08:48;11.26;71.70
65876;HTU21D;52657;51.128;5.938;2023-02-11T12:11:23;11.30;71.70
65876;HTU21D;52657;51.128;5.938;2023-02-11T12:25:23;11.43;71.42
65876;HTU21D;52657;51.128;5.938;2023-02-11T12:39:24;11.52;71.44
65876;HTU21D;52657;51.128;5.938;2023-02-11T12:45:10;11.44;71.48
65876;HTU21D;52657;51.128;5.938;2023-02-11T12:56:39;11.55;71.39
65876;HTU21D;52657;51.128;5.938;2023-02-11T13:02:03;11.61;71.34
65876;HTU21D;52657;51.128;5.938;2023-02-11T13:04:44;11.66;71.05
65876;HTU21D;52657;51.128;5.938;2023-02-11T13:07:33;11.68;71.07
65876;HTU21D;52657;51.128;5.938;2023-02-11T13:10:15;11.71;71.07
65876;HTU21D;52657;51.128;5.938;2023-02-11T13:12:49;11.75;70.90
65876;HTU21D;52657;51.128;5.938;2023-02-11T13:15:34;11.81;70.82
65876;HTU21D;52657;51.128;5.938;2023-02-11T13:21:37;11.90;70.44
65876;HTU21D;52657;51.128;5.938;2023-02-11T13:36:24;11.99;70.16
65876;HTU21D;52657;51.128;5.938;2023-02-11T13:38:31;11.98;70.03
65876;HTU21D;52657;51.128;5.938;2023-02-11T13:41:14;11.94;70.04
65876;HTU21D;52657;51.128;5.938;2023-02-11T13:43:42;11.90;70.21
65876;HTU21D;52657;51.128;5.938;2023-02-11T13:46:13;11.92;70.33
65876;HTU21D;52657;51.128;5.938;2023-02-11T13:48:49;11.99;70.10
65876;HTU21D;52657;51.128;5.938;2023-02-11T13:51:36;11.98;70.15
65876;HTU21D;52657;51.128;5.938;2023-02-11T13:54:05;11.97;70.03
65876;HTU21D;52657;51.128;5.938;2023-02-11T13:56:35;11.93;70.28
65876;HTU21D;52657;51.128;5.938;2023-02-11T13:59:24;12.00;70.34
65876;HTU21D;52657;51.128;5.938;2023-02-11T14:16:16;12.07;69.65
65876;HTU21D;52657;51.128;5.938;2023-02-11T14:27:06;12.04;69.74
65876;HTU21D;52657;51.128;5.938;2023-02-11T14:29:41;12.05;69.70
65876;HTU21D;52657;51.128;5.938;2023-02-11T14:35:42;12.03;69.76
65876;HTU21D;52657;51.128;5.938;2023-02-11T14:39:07;12.05;69.69
65876;HTU21D;52657;51.128;5.938;2023-02-11T14:41:26;12.06;69.77
65876;HTU21D;52657;51.128;5.938;2023-02-11T14:44:03;12.07;69.71
65876;HTU21D;52657;51.128;5.938;2023-02-11T14:46:32;12.13;69.63
65876;HTU21D;52657;51.128;5.938;2023-02-11T14:49:01;12.16;69.61
65876;HTU21D;52657;51.128;5.938;2023-02-11T14:51:35;12.20;69.49
65876;HTU21D;52657;51.128;5.938;2023-02-11T14:54:13;12.23;69.36
65876;HTU21D;52657;51.128;5.938;2023-02-11T14:56:41;12.22;69.30
65876;HTU21D;52657;51.128;5.938;2023-02-11T14:59:21;12.19;69.25
65876;HTU21D;52657;51.128;5.938;2023-02-11T15:01:52;12.20;69.47
65876;HTU21D;52657;51.128;5.938;2023-02-11T15:04:32;12.25;69.33
65876;HTU21D;52657;51.128;5.938;2023-02-11T15:07:04;12.26;69.30
65876;HTU21D;52657;51.128;5.938;2023-02-11T15:09:40;12.29;69.22
65876;HTU21D;52657;51.128;5.938;2023-02-11T15:14:47;12.35;69.13
65876;HTU21D;52657;51.128;5.938;2023-02-11T15:17:23;12.40;69.00
65876;HTU21D;52657;51.128;5.938;2023-02-11T15:19:53;12.41;68.71
65876;HTU21D;52657;51.128;5.938;2023-02-11T15:22:23;12.34;68.95
65876;HTU21D;52657;51.128;5.938;2023-02-11T15:27:45;12.23;69.26
65876;HTU21D;52657;51.128;5.938;2023-02-11T15:32:48;12.29;69.25
65876;HTU21D;52657;51.128;5.938;2023-02-11T15:35:16;12.29;69.24
65876;HTU21D;52657;51.128;5.938;2023-02-11T15:37:43;12.28;69.13
65876;HTU21D;52657;51.128;5.938;2023-02-11T15:40:18;12.29;69.28
65876;HTU21D;52657;51.128;5.938;2023-02-11T15:47:58;12.36;69.08
65876;HTU21D;52657;51.128;5.938;2023-02-11T15:50:27;12.32;69.20
65876;HTU21D;52657;51.128;5.938;2023-02-11T15:52:58;12.31;69.10
65876;HTU21D;52657;51.128;5.938;2023-02-11T15:55:27;12.31;69.05
65876;HTU21D;52657;51.128;5.938;2023-02-11T15:58:00;12.31;69.10
65876;HTU21D;52657;51.128;5.938;2023-02-11T16:00:45;12.29;69.04
65876;HTU21D;52657;51.128;5.938;2023-02-11T16:03:21;12.26;69.05
65876;HTU21D;52657;51.128;5.938;2023-02-11T16:05:49;12.23;69.10
65876;HTU21D;52657;51.128;5.938;2023-02-11T16:08:28;12.26;69.11
65876;HTU21D;52657;51.128;5.938;2023-02-11T16:11:00;12.23;69.04
65876;HTU21D;52657;51.128;5.938;2023-02-11T16:13:30;12.23;69.13
65876;HTU21D;52657;51.128;5.938;2023-02-11T16:15:59;12.23;69.06
65876;HTU21D;52657;51.128;5.938;2023-02-11T16:18:38;12.25;68.98
65876;HTU21D;52657;51.128;5.938;2023-02-11T16:21:14;12.21;69.10
65876;HTU21D;52657;51.128;5.938;2023-02-11T16:23:55;12.22;69.07
65876;HTU21D;52657;51.128;5.938;2023-02-11T16:26:31;12.20;69.16
65876;HTU21D;52657;51.128;5.938;2023-02-11T16:29:10;12.21;69.17
65876;HTU21D;52657;51.128;5.938;2023-02-11T16:31:40;12.21;69.22
65876;HTU21D;52657;51.128;5.938;2023-02-11T16:34:16;12.21;69.34
65876;HTU21D;52657;51.128;5.938;2023-02-11T16:36:44;12.25;69.63
65876;HTU21D;52657;51.128;5.938;2023-02-11T16:39:10;12.22;69.90
65876;HTU21D;52657;51.128;5.938;2023-02-11T16:41:36;12.18;69.71
65876;HTU21D;52657;51.128;5.938;2023-02-11T16:44:02;12.12;70.75
65876;HTU21D;52657;51.128;5.938;2023-02-11T16:46:28;12.13;71.57
65876;HTU21D;52657;51.128;5.938;2023-02-11T16:48:55;12.18;71.85
65876;HTU21D;52657;51.128;5.938;2023-02-11T16:51:22;12.22;72.12
65876;HTU21D;52657;51.128;5.938;2023-02-11T16:53:48;12.26;71.53
65876;HTU21D;52657;51.128;5.938;2023-02-11T16:56:15;12.22;70.76
65876;HTU21D;52657;51.128;5.938;2023-02-11T16:58:42;12.21;70.61
65876;HTU21D;52657;51.128;5.938;2023-02-11T17:01:08;12.17;70.18
65876;HTU21D;52657;51.128;5.938;2023-02-11T17:03:37;12.10;70.10
65876;HTU21D;52657;51.128;5.938;2023-02-11T17:06:11;12.03;70.16
65876;HTU21D;52657;51.128;5.938;2023-02-11T17:08:39;12.01;70.11
65876;HTU21D;52657;51.128;5.938;2023-02-11T17:11:05;11.98;70.23
65876;HTU21D;52657;51.128;5.938;2023-02-11T17:13:31;11.90;70.35
65876;HTU21D;52657;51.128;5.938;2023-02-11T17:15:57;11.92;70.40
65876;HTU21D;52657;51.128;5.938;2023-02-11T17:18:23;11.92;70.35
65876;HTU21D;52657;51.128;5.938;2023-02-11T17:20:48;11.89;70.45
65876;HTU21D;52657;51.128;5.938;2023-02-11T17:23:14;11.89;70.37
65876;HTU21D;52657;51.128;5.938;2023-02-11T17:25:40;11.85;70.47
65876;HTU21D;52657;51.128;5.938;2023-02-11T17:28:07;11.85;70.49
65876;HTU21D;52657;51.128;5.938;2023-02-11T17:30:34;11.84;70.50
65876;HTU21D;52657;51.128;5.938;2023-02-11T17:33:00;11.81;70.68
65876;HTU21D;52657;51.128;5.938;2023-02-11T17:35:25;11.82;70.79
65876;HTU21D;52657;51.128;5.938;2023-02-11T17:37:51;11.84;70.63
65876;HTU21D;52657;51.128;5.938;2023-02-11T17:40:17;11.83;70.72
65876;HTU21D;52657;51.128;5.938;2023-02-11T17:42:43;11.87;70.62
65876;HTU21D;52657;51.128;5.938;2023-02-11T17:45:09;11.88;70.57
65876;HTU21D;52657;51.128;5.938;2023-02-11T17:47:35;11.87;70.53
65876;HTU21D;52657;51.128;5.938;2023-02-11T17:50:00;11.89;70.45
65876;HTU21D;52657;51.128;5.938;2023-02-11T17:52:27;11.91;70.47
65876;HTU21D;52657;51.128;5.938;2023-02-11T17:54:53;11.93;70.35
65876;HTU21D;52657;51.128;5.938;2023-02-11T17:57:20;11.91;70.37
65876;HTU21D;52657;51.128;5.938;2023-02-11T17:59:46;11.90;70.41
65876;HTU21D;52657;51.128;5.938;2023-02-11T18:02:11;11.90;70.41
65876;HTU21D;52657;51.128;5.938;2023-02-11T18:04:37;11.88;70.50
65876;HTU21D;52657;51.128;5.938;2023-02-11T18:07:04;11.91;70.48
65876;HTU21D;52657;51.128;5.938;2023-02-11T18:09:30;11.96;70.35
65876;HTU21D;52657;51.128;5.938;2023-02-11T18:12:00;11.98;70.20